createdAt,value
2022-08-30T00:01:22.019Z,20.54
2022-08-30T00:03:48.880Z,20.01
2022-08-30T00:06:19.757Z,20.68
2022-08-30T00:08:47.542Z,21.03
2022-08-30T00:11:20.358Z,20.49
2022-08-30T00:13:48.820Z,20.79
2022-08-30T00:16:15.909Z,21.72
2022-08-30T00:18:44.641Z,21.94
2022-08-30T00:21:12.961Z,21.38
2022-08-30T00:23:40.700Z,21.38
2022-08-30T00:26:08.194Z,20.64
2022-08-30T00:28:35.875Z,21.36
2022-08-30T00:31:02.769Z,21.34
2022-08-30T00:33:30.155Z,21.82
2022-08-30T00:35:57.481Z,21.37
2022-08-30T00:38:24.194Z,20.92
2022-08-30T00:40:52.607Z,20.68
2022-08-30T00:43:31.144Z,20.37
2022-08-30T00:45:58.283Z,20.53
2022-08-30T00:48:25.822Z,21.32
2022-08-30T00:51:01.733Z,21.39
2022-08-30T00:53:35.903Z,21.52
2022-08-30T00:56:04.362Z,21.20
2022-08-30T00:58:35.842Z,20.47
2022-08-30T01:01:04.728Z,19.75
2022-08-30T01:03:34.338Z,20.29
2022-08-30T01:06:02.794Z,20.43
2022-08-30T01:08:29.448Z,20.49
2022-08-30T01:10:57.808Z,20.07
2022-08-30T01:13:27.006Z,20.50
2022-08-30T01:15:55.857Z,20.65
2022-08-30T01:18:23.783Z,20.97
2022-08-30T01:21:07.743Z,21.18
2022-08-30T01:23:40.258Z,21.45
2022-08-30T01:26:08.125Z,21.32
2022-08-30T01:28:35.398Z,20.66
2022-08-30T01:31:02.585Z,20.45
2022-08-30T01:33:29.419Z,19.89
2022-08-30T01:35:57.786Z,19.70
2022-08-30T01:38:29.441Z,19.80
2022-08-30T01:41:07.432Z,20.20
2022-08-30T01:43:34.075Z,20.37
2022-08-30T01:46:00.977Z,20.30
2022-08-30T01:48:30.877Z,20.52
2022-08-30T01:50:58.386Z,21.15
2022-08-30T01:53:25.087Z,20.23
2022-08-30T01:55:51.738Z,20.65
2022-08-30T01:58:18.402Z,20.66
2022-08-30T02:00:45.169Z,20.73
2022-08-30T02:03:11.818Z,20.90
2022-08-30T02:05:38.403Z,20.48
2022-08-30T02:08:05.131Z,20.09
2022-08-30T02:10:32.039Z,20.72
2022-08-30T02:12:58.654Z,20.39
2022-08-30T02:15:25.584Z,20.21
2022-08-30T02:17:52.243Z,20.67
2022-08-30T02:20:18.877Z,20.70
2022-08-30T02:22:49.195Z,20.75
2022-08-30T02:25:20.919Z,20.73
2022-08-30T02:27:48.532Z,20.70
2022-08-30T02:30:15.294Z,20.70
2022-08-30T02:32:41.952Z,20.48
2022-08-30T02:35:09.045Z,20.25
2022-08-30T02:37:35.782Z,19.67
2022-08-30T02:40:03.346Z,19.52
2022-08-30T02:42:29.984Z,19.05
2022-08-30T02:44:56.738Z,19.42
2022-08-30T02:47:23.365Z,20.22
2022-08-30T02:49:50.013Z,20.32
2022-08-30T02:52:16.646Z,20.67
2022-08-30T02:54:43.282Z,20.12
2022-08-30T02:57:20.273Z,20.59
2022-08-30T02:59:47.677Z,19.99
2022-08-30T03:02:15.560Z,19.65
2022-08-30T03:04:42.639Z,19.44
2022-08-30T03:07:09.325Z,19.69
2022-08-30T03:09:36.539Z,19.20
2022-08-30T03:12:03.731Z,18.92
2022-08-30T03:14:30.431Z,19.13
2022-08-30T03:16:57.213Z,18.86
2022-08-30T03:19:23.904Z,18.88
2022-08-30T03:21:50.566Z,19.18
2022-08-30T03:24:17.728Z,19.79
2022-08-30T03:26:46.501Z,19.54
2022-08-30T03:29:13.526Z,18.82
2022-08-30T03:31:52.652Z,19.16
2022-08-30T03:34:20.121Z,19.46
2022-08-30T03:36:46.821Z,19.10
2022-08-30T03:39:14.050Z,19.78
2022-08-30T03:41:40.851Z,19.59
2022-08-30T03:44:07.956Z,20.22
2022-08-30T03:46:37.470Z,20.23
2022-08-30T03:49:05.490Z,20.36
2022-08-30T03:51:32.749Z,19.70
2022-08-30T03:54:00.731Z,19.63
2022-08-30T03:56:27.424Z,19.45
2022-08-30T03:58:54.324Z,19.20
2022-08-30T04:01:21.069Z,19.28
2022-08-30T04:03:48.028Z,19.76
2022-08-30T04:06:14.669Z,20.03
2022-08-30T04:08:42.040Z,19.53
2022-08-30T04:11:09.213Z,19.87
2022-08-30T04:13:35.883Z,19.64
2022-08-30T04:16:02.742Z,19.85
2022-08-30T04:18:29.401Z,19.37
2022-08-30T04:20:56.150Z,19.90
2022-08-30T04:23:22.830Z,19.48
2022-08-30T04:25:49.480Z,19.59
2022-08-30T04:28:16.198Z,19.64
2022-08-30T04:30:44.739Z,19.49
2022-08-30T04:33:13.627Z,19.38
2022-08-30T04:35:42.097Z,19.16
2022-08-30T04:38:09.565Z,19.47
2022-08-30T04:40:42.529Z,19.97
2022-08-30T04:43:09.995Z,19.26
2022-08-30T04:45:38.874Z,18.89
2022-08-30T04:48:06.561Z,18.95
2022-08-30T04:50:33.289Z,19.31
2022-08-30T04:53:00.013Z,19.33
2022-08-30T04:55:26.666Z,19.66
2022-08-30T04:57:53.407Z,19.47
2022-08-30T05:00:20.675Z,19.33
2022-08-30T05:02:47.915Z,19.04
2022-08-30T05:05:14.830Z,19.88
2022-08-30T05:07:41.466Z,19.89
2022-08-30T05:10:11.367Z,20.07
2022-08-30T05:12:38.934Z,19.29
2022-08-30T05:15:06.014Z,19.87
2022-08-30T05:17:32.904Z,20.16
2022-08-30T05:20:01.873Z,19.40
2022-08-30T05:22:28.601Z,19.81
2022-08-30T05:24:55.253Z,20.09
2022-08-30T05:27:21.985Z,20.21
2022-08-30T05:29:48.817Z,20.74
2022-08-30T05:32:15.632Z,19.86
2022-08-30T05:34:42.224Z,20.38
2022-08-30T05:37:08.870Z,20.08
2022-08-30T05:39:45.089Z,19.69
2022-08-30T05:42:18.800Z,20.39
2022-08-30T05:44:45.450Z,20.68
2022-08-30T05:47:12.085Z,20.32
2022-08-30T05:49:38.750Z,20.80
2022-08-30T05:52:05.402Z,20.80
2022-08-30T05:54:32.053Z,21.07
2022-08-30T05:56:58.695Z,21.19
2022-08-30T05:59:25.540Z,20.20
2022-08-30T06:01:58.212Z,20.58
2022-08-30T06:04:26.085Z,20.30
2022-08-30T06:06:52.909Z,19.89
2022-08-30T06:09:19.709Z,20.32
2022-08-30T06:11:47.326Z,20.60
2022-08-30T06:14:14.830Z,20.48
2022-08-30T06:16:42.898Z,20.66
2022-08-30T06:19:09.751Z,20.43
2022-08-30T06:21:37.592Z,21.42
2022-08-30T06:24:07.747Z,22.00
2022-08-30T06:26:39.244Z,22.15
2022-08-30T06:29:06.033Z,22.35
2022-08-30T06:31:33.602Z,22.34
2022-08-30T06:34:00.304Z,22.37
2022-08-30T06:36:27.164Z,21.95
2022-08-30T06:38:56.488Z,22.08
2022-08-30T06:41:26.797Z,21.88
2022-08-30T06:43:54.785Z,21.62
2022-08-30T06:46:28.231Z,22.71
2022-08-30T06:48:56.671Z,23.07
2022-08-30T06:51:33.391Z,22.23
2022-08-30T06:54:03.253Z,23.02
2022-08-30T06:56:31.143Z,22.27
2022-08-30T06:58:58.377Z,22.23
2022-08-30T07:01:28.160Z,22.24
2022-08-30T07:03:54.871Z,21.62
2022-08-30T07:06:23.213Z,21.27
2022-08-30T07:08:50.333Z,22.94
2022-08-30T07:11:37.970Z,24.39
2022-08-30T07:14:06.312Z,25.63
2022-08-30T07:16:34.160Z,26.18
2022-08-30T07:19:01.342Z,27.00
2022-08-30T07:21:41.249Z,27.50
2022-08-30T07:24:08.843Z,28.04
2022-08-30T07:26:43.313Z,27.75
2022-08-30T07:29:10.286Z,27.90
2022-08-30T07:31:37.522Z,27.91
2022-08-30T07:34:05.040Z,27.84
2022-08-30T07:36:32.023Z,28.01
2022-08-30T07:38:59.132Z,28.43
2022-08-30T07:41:33.389Z,28.18
2022-08-30T07:44:01.294Z,27.96
2022-08-30T07:46:28.111Z,27.77
2022-08-30T07:48:54.836Z,27.48
2022-08-30T07:51:24.470Z,28.20
2022-08-30T07:53:53.496Z,28.33
2022-08-30T07:56:20.850Z,28.46
2022-08-30T07:58:48.037Z,28.76
2022-08-30T08:01:15.924Z,27.79
2022-08-30T08:03:43.590Z,27.57
2022-08-30T08:06:12.826Z,27.02
2022-08-30T08:08:40.860Z,26.58
2022-08-30T08:11:16.536Z,26.42
2022-08-30T08:13:53.090Z,26.90
2022-08-30T08:16:28.994Z,26.56
2022-08-30T08:18:58.849Z,27.21
2022-08-30T08:21:26.980Z,27.86
2022-08-30T08:23:53.907Z,27.21
2022-08-30T08:26:21.504Z,27.59
2022-08-30T08:28:48.205Z,27.87
2022-08-30T08:31:33.769Z,27.83
2022-08-30T08:34:02.575Z,28.25
2022-08-30T08:36:30.394Z,28.40
2022-08-30T08:38:57.171Z,28.52
2022-08-30T08:41:51.562Z,27.46
2022-08-30T08:44:23.872Z,27.84
2022-08-30T08:47:13.726Z,27.74
2022-08-30T08:49:45.305Z,27.41
2022-08-30T08:52:23.114Z,27.74
2022-08-30T08:55:01.990Z,27.68
2022-08-30T08:57:35.238Z,28.40
2022-08-30T09:00:13.662Z,27.90
2022-08-30T09:02:43.278Z,27.70
2022-08-30T09:05:17.532Z,27.27
2022-08-30T09:07:51.074Z,26.37
2022-08-30T09:10:29.981Z,26.29
2022-08-30T09:13:05.138Z,26.36
2022-08-30T09:15:34.894Z,26.46
2022-08-30T09:18:05.387Z,26.61
2022-08-30T09:20:44.301Z,27.19
2022-08-30T09:23:13.614Z,26.94
2022-08-30T09:25:56.328Z,27.04
2022-08-30T09:28:34.451Z,27.09
2022-08-30T09:31:03.192Z,27.35
2022-08-30T09:33:30.521Z,27.67
2022-08-30T09:36:12.953Z,27.67
2022-08-30T09:38:40.680Z,27.43
2022-08-30T09:41:36.298Z,27.13
2022-08-30T09:44:15.573Z,27.13
2022-08-30T09:46:48.880Z,26.39
2022-08-30T09:49:41.325Z,26.63
2022-08-30T09:52:41.537Z,26.76
2022-08-30T09:55:08.300Z,26.33
2022-08-30T09:58:03.310Z,26.52
2022-08-30T10:00:39.468Z,26.13
2022-08-30T10:03:47.829Z,25.82
2022-08-30T10:06:25.220Z,25.93
2022-08-30T10:09:13.141Z,25.26
2022-08-30T10:12:00.913Z,24.78
2022-08-30T10:14:59.744Z,25.08
2022-08-30T10:17:49.518Z,25.45
2022-08-30T10:20:33.743Z,25.96
2022-08-30T10:23:09.427Z,26.46
2022-08-30T10:25:46.732Z,26.98
2022-08-30T10:28:42.150Z,27.13
2022-08-30T10:31:20.621Z,26.68
2022-08-30T10:33:58.681Z,27.22
2022-08-30T10:36:36.013Z,27.49
2022-08-30T10:39:04.871Z,27.16
2022-08-30T10:41:31.449Z,27.53
2022-08-30T10:44:21.029Z,27.41
2022-08-30T10:47:04.321Z,27.72
2022-08-30T10:49:40.485Z,28.14
2022-08-30T10:52:23.501Z,27.87
2022-08-30T10:55:18.406Z,27.40
2022-08-30T10:57:45.584Z,27.19
2022-08-30T11:00:22.444Z,27.20
2022-08-30T11:03:06.102Z,27.78
2022-08-30T11:06:21.719Z,27.97
2022-08-30T11:09:13.797Z,27.35
2022-08-30T11:12:01.897Z,27.77
2022-08-30T11:14:30.281Z,27.14
2022-08-30T11:17:00.564Z,26.84
2022-08-30T11:19:40.991Z,26.95
2022-08-30T11:22:21.432Z,27.07
2022-08-30T11:25:16.830Z,27.08
2022-08-30T11:27:55.178Z,27.14
2022-08-30T11:30:26.511Z,27.36
2022-08-30T11:33:05.428Z,27.51
2022-08-30T11:35:39.082Z,27.41
2022-08-30T11:38:25.291Z,27.14
2022-08-30T11:40:54.537Z,26.97
2022-08-30T11:43:41.057Z,27.49
2022-08-30T11:46:34.662Z,27.45
2022-08-30T11:49:13.202Z,27.52
2022-08-30T11:52:27.527Z,27.52
2022-08-30T11:55:15.077Z,27.64
2022-08-30T11:57:47.520Z,27.77
2022-08-30T12:00:28.736Z,27.70
2022-08-30T12:02:59.649Z,27.35
2022-08-30T12:05:38.463Z,27.08
2022-08-30T12:08:24.365Z,27.40
2022-08-30T12:10:58.597Z,27.68
2022-08-30T12:13:34.078Z,27.72
2022-08-30T12:16:06.844Z,27.32
2022-08-30T12:18:47.014Z,27.03
2022-08-30T12:21:13.642Z,27.03
2022-08-30T12:24:06.625Z,27.09
2022-08-30T12:26:33.275Z,27.31
2022-08-30T12:29:26.700Z,27.26
2022-08-30T12:32:00.697Z,27.07
2022-08-30T12:34:49.377Z,27.12
2022-08-30T12:37:23.793Z,27.13
2022-08-30T12:40:02.693Z,27.16
2022-08-30T12:42:33.311Z,26.30
2022-08-30T12:45:06.151Z,25.69
2022-08-30T12:47:48.060Z,26.21
2022-08-30T12:50:22.510Z,26.33
2022-08-30T12:53:09.309Z,26.11
2022-08-30T12:55:59.222Z,27.03
2022-08-30T12:58:38.396Z,27.05
2022-08-30T13:01:24.558Z,26.41
2022-08-30T13:04:03.049Z,25.93
2022-08-30T13:06:49.116Z,26.38
2022-08-30T13:09:42.755Z,26.53
2022-08-30T13:12:26.277Z,26.09
2022-08-30T13:15:08.884Z,26.55
2022-08-30T13:17:38.792Z,26.41
2022-08-30T13:20:17.197Z,26.63
2022-08-30T13:23:02.275Z,26.30
2022-08-30T13:25:29.321Z,26.33
2022-08-30T13:28:01.247Z,26.59
2022-08-30T13:30:30.143Z,26.28
2022-08-30T13:32:57.908Z,26.42
2022-08-30T13:35:25.374Z,26.46
2022-08-30T13:37:52.228Z,26.76
2022-08-30T13:40:21.441Z,26.74
2022-08-30T13:42:49.105Z,26.87
2022-08-30T13:48:07.060Z,27.13
2022-08-30T13:50:33.818Z,27.73
2022-08-30T13:53:00.500Z,27.48
2022-08-30T13:55:28.082Z,28.06
2022-08-30T13:57:58.031Z,27.97
2022-08-30T14:00:26.184Z,28.26
2022-08-30T14:02:53.948Z,28.28
2022-08-30T14:11:04.418Z,27.96
2022-08-30T14:13:32.105Z,27.92
2022-08-30T14:18:48.947Z,28.08
2022-08-30T14:21:16.026Z,27.52
2022-08-30T14:23:42.822Z,26.98
2022-08-30T14:26:28.149Z,27.45
2022-08-30T14:28:59.811Z,27.93
2022-08-30T14:31:26.467Z,27.44
2022-08-30T14:33:53.157Z,27.80
2022-08-30T14:36:23.887Z,27.74
2022-08-30T14:38:51.474Z,27.85
2022-08-30T14:41:18.134Z,27.58
2022-08-30T14:43:45.057Z,27.55
2022-08-30T14:46:15.623Z,27.55
2022-08-30T14:48:43.099Z,27.53
2022-08-30T14:51:22.643Z,27.93
2022-08-30T14:53:53.532Z,27.55
2022-08-30T14:56:23.222Z,27.55
2022-08-30T14:58:53.800Z,27.97
2022-08-30T15:01:21.043Z,27.77
2022-08-30T15:03:48.026Z,27.02
2022-08-30T15:06:15.507Z,27.10
2022-08-30T15:08:43.391Z,27.48
2022-08-30T15:11:18.501Z,27.45
2022-08-30T15:13:46.070Z,27.85
2022-08-30T15:16:14.522Z,27.72
2022-08-30T15:18:41.830Z,28.03
2022-08-30T15:21:09.635Z,27.75
2022-08-30T15:23:36.871Z,27.72
2022-08-30T15:26:05.729Z,27.29
2022-08-30T15:28:34.999Z,27.31
2022-08-30T15:31:06.319Z,27.39
2022-08-30T15:33:35.981Z,26.95
2022-08-30T15:36:05.397Z,27.22
2022-08-30T15:38:32.916Z,27.68
2022-08-30T15:41:03.581Z,27.83
2022-08-30T15:43:31.753Z,27.52
2022-08-30T15:46:29.867Z,27.39
2022-08-30T15:49:01.929Z,27.80
2022-08-30T15:51:30.868Z,27.49
2022-08-30T15:54:09.657Z,27.50
2022-08-30T15:56:41.815Z,27.75
2022-08-30T15:59:09.926Z,27.72
2022-08-30T16:01:37.859Z,27.24
2022-08-30T16:04:04.565Z,27.55
2022-08-30T16:06:34.965Z,27.54
2022-08-30T16:09:01.918Z,27.65
2022-08-30T16:11:28.540Z,27.32
2022-08-30T16:13:56.714Z,26.80
2022-08-30T16:16:25.182Z,25.83
2022-08-30T16:18:54.233Z,24.65
2022-08-30T16:21:31.128Z,24.11
2022-08-30T16:24:00.851Z,24.05
2022-08-30T16:26:29.668Z,24.14
2022-08-30T16:28:56.319Z,24.27
2022-08-30T16:31:24.329Z,24.11
2022-08-30T16:33:53.173Z,24.03
2022-08-30T16:36:22.397Z,23.95
2022-08-30T16:38:49.773Z,23.68
2022-08-30T16:41:21.797Z,24.13
2022-08-30T16:43:53.263Z,24.14
2022-08-30T16:46:27.190Z,24.64
2022-08-30T16:48:57.813Z,25.00
2022-08-30T16:51:27.635Z,24.66
2022-08-30T16:53:56.590Z,24.50
2022-08-30T16:56:26.680Z,24.50
2022-08-30T17:01:41.040Z,24.13
2022-08-30T17:04:08.790Z,23.28
2022-08-30T17:06:36.761Z,22.92
2022-08-30T17:09:05.223Z,22.37
2022-08-30T17:11:42.293Z,22.01
2022-08-30T17:14:10.261Z,21.97
2022-08-30T17:19:28.658Z,22.15
2022-08-30T17:21:56.027Z,22.11
2022-08-30T17:24:22.779Z,22.34
2022-08-30T17:26:51.312Z,21.21
2022-08-30T17:29:18.004Z,20.49
2022-08-30T17:31:44.723Z,20.32
2022-08-30T17:34:11.642Z,20.26
2022-08-30T17:36:38.512Z,19.96
2022-08-30T17:39:10.461Z,19.53
2022-08-30T17:41:43.308Z,19.66
2022-08-30T17:44:12.852Z,19.28
2022-08-30T17:46:40.328Z,19.22
2022-08-30T17:49:10.417Z,19.15
2022-08-30T17:51:37.400Z,18.78
2022-08-30T17:54:06.563Z,18.89
2022-08-30T17:56:35.527Z,18.57
2022-08-30T17:59:03.009Z,18.51
2022-08-30T18:01:30.330Z,18.59
2022-08-30T18:03:57.804Z,18.86
2022-08-30T18:06:31.505Z,18.78
2022-08-30T18:08:58.201Z,18.54
2022-08-30T18:11:27.167Z,18.44
2022-08-30T18:13:53.775Z,18.59
2022-08-30T18:16:21.687Z,18.41
2022-08-30T18:18:57.351Z,18.18
2022-08-30T18:21:25.289Z,17.77
2022-08-30T18:23:52.616Z,17.44
2022-08-30T18:26:24.143Z,16.95
2022-08-30T18:28:51.305Z,16.69
2022-08-30T18:31:18.051Z,16.51
2022-08-30T18:33:48.687Z,16.31
2022-08-30T18:36:16.495Z,16.28
2022-08-30T18:38:44.637Z,16.43
2022-08-30T18:41:13.340Z,16.41
2022-08-30T18:43:40.929Z,16.35
2022-08-30T18:46:10.992Z,16.55
2022-08-30T18:48:38.871Z,16.67
2022-08-30T18:51:19.085Z,16.96
2022-08-30T18:53:47.374Z,17.12
2022-08-30T18:56:16.204Z,16.93
2022-08-30T18:58:45.044Z,17.50
2022-08-30T19:01:12.917Z,18.25
2022-08-30T19:03:43.209Z,18.69
2022-08-30T19:06:11.776Z,17.71
2022-08-30T19:08:39.750Z,17.26
2022-08-30T19:11:09.200Z,17.10
2022-08-30T19:13:37.322Z,16.97
2022-08-30T19:16:05.783Z,17.09
2022-08-30T19:18:34.595Z,17.62
2022-08-30T19:21:04.228Z,18.51
2022-08-30T19:23:34.346Z,18.79
2022-08-30T19:26:01.365Z,19.13
2022-08-30T19:28:28.779Z,18.78
2022-08-30T19:30:58.004Z,19.04
2022-08-30T19:33:24.802Z,18.73
2022-08-30T19:35:53.179Z,19.36
2022-08-30T19:38:21.096Z,18.69
2022-08-30T19:40:52.395Z,19.21
2022-08-30T19:43:21.497Z,19.31
2022-08-30T19:45:53.858Z,19.70
2022-08-30T19:48:22.289Z,20.03
2022-08-30T19:50:49.355Z,20.11
2022-08-30T19:53:16.357Z,20.34
2022-08-30T19:55:44.317Z,20.58
2022-08-30T19:58:12.416Z,19.82
2022-08-30T20:00:39.258Z,20.02
2022-08-30T20:03:12.184Z,20.43
2022-08-30T20:05:50.861Z,19.68
2022-08-30T20:08:17.559Z,19.58
2022-08-30T20:10:45.478Z,18.92
2022-08-30T20:13:12.894Z,18.88
2022-08-30T20:15:39.732Z,18.88
2022-08-30T20:18:13.403Z,18.40
2022-08-30T20:20:41.693Z,18.15
2022-08-30T20:23:16.289Z,18.09
2022-08-30T20:24:23.149Z,24.15
2022-08-30T20:24:25.126Z,21.81
2022-08-30T20:25:51.132Z,17.88
2022-08-30T20:28:18.510Z,17.52
2022-08-30T20:30:45.343Z,17.86
2022-08-30T20:33:13.370Z,17.64
2022-08-30T20:35:44.450Z,17.70
2022-08-30T20:38:15.063Z,18.71
2022-08-30T20:40:41.782Z,19.03
2022-08-30T20:43:09.475Z,18.60
2022-08-30T20:45:36.089Z,18.55
2022-08-30T20:48:02.905Z,18.32
2022-08-30T20:50:29.647Z,18.58
2022-08-30T20:52:56.307Z,18.49
2022-08-30T20:55:24.771Z,18.30
2022-08-30T20:57:51.452Z,18.21
2022-08-30T21:00:18.172Z,18.65
2022-08-30T21:02:46.799Z,18.15
2022-08-30T21:05:20.739Z,18.22
2022-08-30T21:07:47.375Z,18.77
2022-08-30T21:10:21.222Z,18.18
2022-08-30T21:12:50.016Z,18.24
2022-08-30T21:15:36.278Z,18.12
2022-08-30T21:18:03.373Z,18.30
2022-08-30T21:20:30.053Z,19.23
2022-08-30T21:22:56.787Z,19.75
2022-08-30T21:25:23.463Z,19.83
2022-08-30T21:27:50.100Z,19.98
2022-08-30T21:30:18.203Z,20.39
2022-08-30T21:32:44.833Z,20.17
2022-08-30T21:35:11.472Z,19.90
2022-08-30T21:37:38.162Z,19.67
2022-08-30T21:40:05.291Z,18.86
2022-08-30T21:42:31.959Z,18.13
2022-08-30T21:45:01.271Z,19.17
2022-08-30T21:47:27.940Z,19.75
2022-08-30T21:49:57.461Z,20.11
2022-08-30T21:52:24.289Z,20.41
2022-08-30T21:54:53.765Z,20.20
2022-08-30T21:57:20.430Z,20.38
2022-08-30T21:59:47.115Z,20.47
2022-08-30T22:02:13.766Z,19.76
2022-08-30T22:04:41.028Z,19.49
2022-08-30T22:07:07.673Z,19.93
2022-08-30T22:09:35.456Z,20.07
2022-08-30T22:12:06.918Z,19.99
2022-08-30T22:14:35.748Z,19.61
2022-08-30T22:17:02.526Z,19.46
2022-08-30T22:19:33.512Z,19.77
2022-08-30T22:22:01.717Z,20.02
2022-08-30T22:24:32.049Z,19.87
2022-08-30T22:27:00.806Z,20.16
2022-08-30T22:29:27.454Z,20.18
2022-08-30T22:31:54.212Z,20.11
2022-08-30T22:34:21.008Z,20.10
2022-08-30T22:36:47.632Z,20.03
2022-08-30T22:39:14.312Z,20.15
2022-08-30T22:41:42.171Z,20.10
2022-08-30T22:44:10.716Z,20.36
2022-08-30T22:46:37.778Z,19.68
2022-08-30T22:49:06.558Z,18.77
2022-08-30T22:51:34.569Z,18.08
2022-08-30T22:54:03.574Z,17.91
2022-08-30T22:56:30.535Z,18.09
2022-08-30T22:58:57.170Z,19.04
2022-08-30T23:01:30.564Z,19.27
2022-08-30T23:03:58.760Z,19.91
2022-08-30T23:06:25.433Z,20.21
2022-08-30T23:08:52.048Z,20.29
2022-08-30T23:11:19.590Z,19.91
2022-08-30T23:13:47.290Z,20.42
2022-08-30T23:16:15.527Z,20.46
2022-08-30T23:18:43.804Z,20.58
2022-08-30T23:21:14.031Z,19.99
2022-08-30T23:23:41.155Z,19.97
2022-08-30T23:26:07.793Z,20.43
2022-08-30T23:28:34.417Z,20.32
2022-08-30T23:31:17.774Z,20.61
2022-08-30T23:33:44.426Z,20.65
2022-08-30T23:36:14.355Z,20.69
2022-08-30T23:38:41.233Z,20.31
2022-08-30T23:41:08.199Z,20.31
2022-08-30T23:43:34.893Z,20.25
2022-08-30T23:46:01.561Z,20.08
2022-08-30T23:48:28.227Z,20.22
2022-08-30T23:50:54.873Z,20.19
2022-08-30T23:53:21.472Z,19.88
2022-08-30T23:55:48.307Z,20.39
2022-08-30T23:58:14.964Z,20.03
